createdAt,value
2023-02-09T00:00:18.593Z,102656.25
2023-02-09T00:00:40.606Z,102682.97
2023-02-09T00:01:04.038Z,102691.78
2023-02-09T00:01:27.978Z,102675.81
2023-02-09T00:01:49.892Z,102688.47
2023-02-09T00:02:11.904Z,102689.38
2023-02-09T00:02:34.723Z,102669.66
2023-02-09T00:02:56.454Z,102674.09
2023-02-09T00:03:18.473Z,102674.09
2023-02-09T00:03:40.742Z,102691.00
2023-02-09T00:04:03.996Z,102638.56
2023-02-09T00:04:26.025Z,102656.09
2023-02-09T00:04:47.701Z,102675.75
2023-02-09T00:05:10.177Z,102683.84
2023-02-09T00:05:33.083Z,102666.03
2023-02-09T00:05:54.709Z,102690.03
2023-02-09T00:06:19.341Z,102697.06
2023-02-09T00:06:41.611Z,102673.16
2023-02-09T00:07:05.158Z,102690.94
2023-02-09T00:07:27.002Z,102680.31
2023-02-09T00:07:48.607Z,102691.78
2023-02-09T00:08:10.272Z,102692.56
2023-02-09T00:08:34.528Z,102691.56
2023-02-09T00:08:56.783Z,102693.31
2023-02-09T00:09:19.012Z,102690.66
2023-02-09T00:09:42.280Z,102670.25
2023-02-09T00:10:04.291Z,102689.69
2023-02-09T00:10:26.132Z,102679.19
2023-02-09T00:10:47.950Z,102680.03
2023-02-09T00:11:15.019Z,102687.25
2023-02-09T00:11:57.592Z,102687.25
2023-02-09T00:12:38.194Z,102689.94
2023-02-09T00:13:18.217Z,102689.91
2023-02-09T00:13:39.932Z,102683.78
2023-02-09T00:14:03.847Z,102681.13
2023-02-09T00:14:25.833Z,102688.25
2023-02-09T00:14:47.503Z,102684.78
2023-02-09T00:15:11.886Z,102683.94
2023-02-09T00:15:33.550Z,102685.75
2023-02-09T00:15:57.453Z,102692.78
2023-02-09T00:16:26.076Z,102682.25
2023-02-09T00:16:48.274Z,102678.69
2023-02-09T00:17:10.882Z,102690.16
2023-02-09T00:17:33.064Z,102688.38
2023-02-09T00:17:55.740Z,102686.63
2023-02-09T00:18:17.821Z,102684.88
2023-02-09T00:18:39.871Z,102668.88
2023-02-09T00:19:01.552Z,102696.34
2023-02-09T00:19:24.150Z,102687.50
2023-02-09T00:19:48.857Z,102690.25
2023-02-09T00:20:11.274Z,102692.91
2023-02-09T00:20:33.007Z,102696.47
2023-02-09T00:21:02.582Z,102691.19
2023-02-09T00:21:24.278Z,102696.41
2023-02-09T00:21:46.672Z,102693.69
2023-02-09T00:22:08.310Z,102687.63
2023-02-09T00:22:30.981Z,102683.19
2023-02-09T00:22:52.834Z,102693.78
2023-02-09T00:23:14.501Z,102691.09
2023-02-09T00:23:37.868Z,102691.94
2023-02-09T00:24:00.109Z,102695.50
2023-02-09T00:24:22.785Z,102692.88
2023-02-09T00:24:44.619Z,102688.53
2023-02-09T00:25:07.145Z,102692.94
2023-02-09T00:25:28.826Z,102689.47
2023-02-09T00:25:50.776Z,102687.63
2023-02-09T00:26:13.367Z,102691.09
2023-02-09T00:26:39.425Z,102690.03
2023-02-09T00:27:01.292Z,102691.78
2023-02-09T00:27:25.563Z,102682.09
2023-02-09T00:27:48.189Z,102684.63
2023-02-09T00:28:09.892Z,102681.97
2023-02-09T00:28:31.866Z,102662.47
2023-02-09T00:28:53.712Z,102684.63
2023-02-09T00:29:16.900Z,102676.69
2023-02-09T00:29:38.549Z,102675.78
2023-02-09T00:30:00.361Z,102678.38
2023-02-09T00:30:23.335Z,102665.00
2023-02-09T00:30:46.871Z,102681.88
2023-02-09T00:31:10.527Z,102679.31
2023-02-09T00:31:35.221Z,102666.84
2023-02-09T00:31:56.916Z,102673.16
2023-02-09T00:32:19.547Z,102681.94
2023-02-09T00:32:41.101Z,102678.38
2023-02-09T00:33:02.800Z,102687.25
2023-02-09T00:33:24.883Z,102689.03
2023-02-09T00:33:47.534Z,102688.19
2023-02-09T00:34:10.489Z,102687.41
2023-02-09T00:34:32.210Z,102685.63
2023-02-09T00:34:53.873Z,102682.03
2023-02-09T00:35:15.551Z,102676.72
2023-02-09T00:35:41.376Z,102685.50
2023-02-09T00:36:04.789Z,102670.47
2023-02-09T00:36:26.640Z,102672.25
2023-02-09T00:36:48.294Z,102679.31
2023-02-09T00:37:10.940Z,102668.63
2023-02-09T00:37:34.592Z,102673.97
2023-02-09T00:37:56.258Z,102660.56
2023-02-09T00:38:18.712Z,102660.81
2023-02-09T00:38:43.640Z,102672.31
2023-02-09T00:39:05.428Z,102673.09
2023-02-09T00:39:27.321Z,102666.81
2023-02-09T00:39:49.059Z,102672.09
2023-02-09T00:40:12.728Z,102668.66
2023-02-09T00:40:35.121Z,102669.47
2023-02-09T00:40:56.760Z,102666.72
2023-02-09T00:41:40.669Z,102665.72
2023-02-09T00:42:06.552Z,102669.31
2023-02-09T00:42:29.393Z,102651.56
2023-02-09T00:42:53.562Z,102665.81
2023-02-09T00:43:15.159Z,102650.56
2023-02-09T00:43:37.104Z,102668.41
2023-02-09T00:43:59.718Z,102669.34
2023-02-09T00:44:21.858Z,102663.25
2023-02-09T00:44:44.937Z,102635.69
2023-02-09T00:45:07.905Z,102675.63
2023-02-09T00:45:32.217Z,102665.03
2023-02-09T00:45:56.184Z,102672.00
2023-02-09T00:46:18.354Z,102670.00
2023-02-09T00:46:40.286Z,102660.34
2023-02-09T00:47:03.855Z,102650.44
2023-02-09T00:47:26.587Z,102677.13
2023-02-09T00:47:48.450Z,102623.94
2023-02-09T00:48:11.108Z,102671.16
2023-02-09T00:48:33.331Z,102674.72
2023-02-09T00:48:56.844Z,102664.03
2023-02-09T00:49:18.859Z,102679.16
2023-02-09T00:49:41.470Z,102670.34
2023-02-09T00:50:06.610Z,102673.81
2023-02-09T00:50:29.274Z,102679.19
2023-02-09T00:50:53.844Z,102678.38
2023-02-09T00:51:16.601Z,102674.88
2023-02-09T00:51:38.238Z,102624.28
2023-02-09T00:52:01.094Z,102660.56
2023-02-09T00:52:24.016Z,102668.63
2023-02-09T00:52:45.788Z,102669.47
2023-02-09T00:53:07.510Z,102675.81
2023-02-09T00:53:29.147Z,102677.56
2023-02-09T00:53:51.736Z,102676.72
2023-02-09T00:54:13.914Z,102673.16
2023-02-09T00:54:35.587Z,102674.03
2023-02-09T00:54:58.301Z,102678.41
2023-02-09T00:55:21.753Z,102674.00
2023-02-09T00:55:43.472Z,102681.13
2023-02-09T00:56:05.801Z,102669.66
2023-02-09T00:56:27.406Z,102678.53
2023-02-09T00:56:49.490Z,102687.34
2023-02-09T00:57:12.654Z,102675.09
2023-02-09T00:57:34.290Z,102679.53
2023-02-09T00:57:55.960Z,102676.88
2023-02-09T00:58:18.222Z,102667.81
2023-02-09T00:58:40.123Z,102673.31
2023-02-09T00:59:03.051Z,102678.63
2023-02-09T00:59:24.787Z,102681.25
2023-02-09T00:59:46.451Z,102678.38
2023-02-09T01:00:09.611Z,102686.34
2023-02-09T01:00:34.053Z,102677.53
2023-02-09T01:00:55.732Z,102684.63
2023-02-09T01:01:17.656Z,102687.25
2023-02-09T01:01:39.640Z,102679.34
2023-02-09T01:02:02.566Z,102683.69
2023-02-09T01:02:25.647Z,102681.97
2023-02-09T01:02:48.254Z,102675.63
2023-02-09T01:03:13.093Z,102673.88
2023-02-09T01:03:36.044Z,102679.25
2023-02-09T01:03:57.839Z,102683.69
2023-02-09T01:04:19.535Z,102685.47
2023-02-09T01:04:43.609Z,102681.88
2023-02-09T01:05:05.984Z,102679.19
2023-02-09T01:05:27.622Z,102672.97
2023-02-09T01:05:49.235Z,102669.47
2023-02-09T01:06:11.352Z,102677.47
2023-02-09T01:06:34.624Z,102681.75
2023-02-09T01:06:56.298Z,102675.56
2023-02-09T01:07:17.918Z,102678.19
2023-02-09T01:07:41.817Z,102679.88
2023-02-09T01:08:06.046Z,102672.88
2023-02-09T01:08:27.872Z,102675.44
2023-02-09T01:08:51.187Z,102678.97
2023-02-09T01:09:13.060Z,102677.25
2023-02-09T01:09:35.023Z,102670.16
2023-02-09T01:10:00.010Z,102677.13
2023-02-09T01:10:22.225Z,102674.50
2023-02-09T01:10:46.095Z,102677.19
2023-02-09T01:11:08.787Z,102672.75
2023-02-09T01:11:31.629Z,102671.94
2023-02-09T01:11:53.239Z,102680.78
2023-02-09T01:12:15.220Z,102648.81
2023-02-09T01:12:38.943Z,102679.03
2023-02-09T01:13:01.816Z,102677.31
2023-02-09T01:13:26.888Z,102679.88
2023-02-09T01:13:49.102Z,102680.72
2023-02-09T01:14:11.706Z,102678.88
2023-02-09T01:14:36.441Z,102673.41
2023-02-09T01:14:58.153Z,102672.50
2023-02-09T01:15:21.345Z,102669.88
2023-02-09T01:15:44.323Z,102659.06
2023-02-09T01:16:06.403Z,102667.97
2023-02-09T01:16:31.338Z,102673.94
2023-02-09T01:16:53.442Z,102679.16
2023-02-09T01:17:15.203Z,102670.31
2023-02-09T01:17:38.553Z,102658.09
2023-02-09T01:18:01.707Z,102667.78
2023-02-09T01:18:23.378Z,102674.91
2023-02-09T01:18:45.462Z,102672.25
2023-02-09T01:19:07.150Z,102669.63
2023-02-09T01:19:30.011Z,102667.06
2023-02-09T01:19:52.741Z,102670.63
2023-02-09T01:20:14.925Z,102668.03
2023-02-09T01:20:36.565Z,102665.44
2023-02-09T01:20:59.136Z,102670.72
2023-02-09T01:21:22.408Z,102664.59
2023-02-09T01:21:47.557Z,102674.22
2023-02-09T01:22:12.204Z,102661.88
2023-02-09T01:22:35.855Z,102656.56
2023-02-09T01:22:57.475Z,102664.72
2023-02-09T01:23:19.167Z,102663.72
2023-02-09T01:23:40.791Z,102662.97
2023-02-09T01:24:03.438Z,102655.09
2023-02-09T01:24:25.158Z,102665.59
2023-02-09T01:24:47.110Z,102665.59
2023-02-09T01:25:11.582Z,102642.41
2023-02-09T01:25:33.178Z,102663.78
2023-02-09T01:26:01.541Z,102650.47
2023-02-09T01:26:23.390Z,102660.19
2023-02-09T01:26:48.026Z,102673.06
2023-02-09T01:27:09.763Z,102665.94
2023-02-09T01:27:31.500Z,102675.69
2023-02-09T01:27:54.254Z,102674.91
2023-02-09T01:28:16.135Z,102658.09
2023-02-09T01:28:39.487Z,102668.75
2023-02-09T01:29:01.197Z,102675.81
2023-02-09T01:29:22.881Z,102664.38
2023-02-09T01:29:46.340Z,102669.75
2023-02-09T01:30:10.590Z,102666.25
2023-02-09T01:30:40.410Z,102675.75
2023-02-09T01:31:05.470Z,102672.91
2023-02-09T01:31:30.213Z,102673.78
2023-02-09T01:31:53.148Z,102671.25
2023-02-09T01:32:14.998Z,102669.53
2023-02-09T01:32:38.506Z,102664.38
2023-02-09T01:33:00.359Z,102676.75
2023-02-09T01:33:22.198Z,102670.63
2023-02-09T01:33:44.858Z,102667.06
2023-02-09T01:34:06.606Z,102669.75
2023-02-09T01:34:28.277Z,102665.38
2023-02-09T01:34:52.234Z,102666.22
2023-02-09T01:35:13.939Z,102663.66
2023-02-09T01:35:35.820Z,102662.88
2023-02-09T01:35:59.203Z,102664.59
2023-02-09T01:36:21.791Z,102660.22
2023-02-09T01:36:45.892Z,102666.41
2023-02-09T01:37:07.613Z,102650.50
2023-02-09T01:37:29.540Z,102661.13
2023-02-09T01:37:53.247Z,102658.50
2023-02-09T01:38:14.956Z,102627.31
2023-02-09T01:38:37.955Z,102662.09
2023-02-09T01:39:01.859Z,102666.34
2023-02-09T01:39:23.606Z,102663.72
2023-02-09T01:39:45.238Z,102660.06
2023-02-09T01:40:09.497Z,102672.38
2023-02-09T01:40:31.107Z,102671.28
2023-02-09T01:40:52.835Z,102664.38
2023-02-09T01:41:14.984Z,102653.66
2023-02-09T01:41:39.109Z,102663.50
2023-02-09T01:42:04.791Z,102665.38
2023-02-09T01:42:26.610Z,102668.06
2023-02-09T01:42:48.544Z,102668.97
2023-02-09T01:43:12.915Z,102663.72
2023-02-09T01:43:48.977Z,102651.34
2023-02-09T01:44:43.717Z,102635.84
2023-02-09T01:45:23.102Z,102665.38
2023-02-09T01:45:47.242Z,102673.00
2023-02-09T01:46:11.542Z,102659.84
2023-02-09T01:46:38.676Z,102641.22
2023-02-09T01:47:00.430Z,102666.75
2023-02-09T01:47:25.297Z,102662.16
2023-02-09T01:47:51.777Z,102662.06
2023-02-09T01:48:15.812Z,102661.03
2023-02-09T01:48:37.521Z,102654.94
2023-02-09T01:49:05.403Z,102664.63
2023-02-09T01:49:29.144Z,102655.78
2023-02-09T01:49:52.250Z,102659.78
2023-02-09T01:50:15.572Z,102664.34
2023-02-09T01:50:42.908Z,102656.50
2023-02-09T01:51:06.080Z,102651.28
2023-02-09T01:51:29.272Z,102659.19
2023-02-09T01:51:56.226Z,102655.72
2023-02-09T01:52:23.429Z,102657.34
2023-02-09T01:52:47.784Z,102659.19
2023-02-09T01:53:10.503Z,102660.09
2023-02-09T01:53:32.895Z,102645.94
2023-02-09T01:53:54.629Z,102659.28
2023-02-09T01:54:21.871Z,102660.19
2023-02-09T01:54:47.674Z,102654.00
2023-02-09T01:55:12.961Z,102650.41
2023-02-09T01:55:41.345Z,102656.56
2023-02-09T01:56:07.338Z,102656.50
2023-02-09T01:56:31.366Z,102658.06
2023-02-09T01:56:58.750Z,102658.13
2023-02-09T01:57:25.799Z,102659.91
2023-02-09T01:57:50.735Z,102658.03
2023-02-09T01:58:18.472Z,102660.69
2023-02-09T01:58:40.153Z,102642.19
2023-02-09T01:59:02.091Z,102658.28
2023-02-09T01:59:24.279Z,102661.59
2023-02-09T01:59:52.445Z,102662.47
2023-02-09T02:00:18.666Z,102661.59
2023-02-09T02:00:40.504Z,102653.69
2023-02-09T02:01:02.202Z,102663.19
2023-02-09T02:01:28.324Z,102662.47
2023-02-09T02:01:51.751Z,102658.19
2023-02-09T02:02:14.729Z,102659.19
2023-02-09T02:02:37.138Z,102662.53
2023-02-09T02:03:05.499Z,102659.06
2023-02-09T02:03:29.006Z,102666.94
2023-02-09T02:03:52.250Z,102659.84
2023-02-09T02:04:15.024Z,102670.25
2023-02-09T02:04:38.047Z,102665.94
2023-02-09T02:05:00.060Z,102668.56
2023-02-09T02:05:23.517Z,102672.19
2023-02-09T02:05:50.241Z,102668.69
2023-02-09T02:06:15.357Z,102667.00
2023-02-09T02:06:37.470Z,102666.25
2023-02-09T02:07:06.631Z,102660.94
2023-02-09T02:07:33.790Z,102656.44
2023-02-09T02:08:01.263Z,102613.88
2023-02-09T02:08:29.404Z,102656.56
2023-02-09T02:08:57.226Z,102667.28
2023-02-09T02:09:19.704Z,102659.34
2023-02-09T02:09:43.789Z,102661.16
2023-02-09T02:10:06.542Z,102669.88
2023-02-09T02:10:28.848Z,102661.69
2023-02-09T02:10:52.104Z,102669.47
2023-02-09T02:11:13.837Z,102653.69
2023-02-09T02:11:36.393Z,102666.00
2023-02-09T02:11:58.570Z,102661.41
2023-02-09T02:12:20.634Z,102653.53
2023-02-09T02:12:44.119Z,102656.25
2023-02-09T02:13:06.145Z,102653.41
2023-02-09T02:13:27.954Z,102662.28
2023-02-09T02:13:51.202Z,102652.63
2023-02-09T02:14:28.583Z,102651.63
2023-02-09T02:14:50.473Z,102654.41
2023-02-09T02:15:13.635Z,102655.25
2023-02-09T02:15:41.089Z,102653.28
2023-02-09T02:16:10.535Z,102659.66
2023-02-09T02:16:46.560Z,102650.06
2023-02-09T02:17:21.740Z,102648.28
2023-02-09T02:18:00.364Z,102656.28
2023-02-09T02:18:32.948Z,102658.06
2023-02-09T02:19:22.502Z,102658.13
2023-02-09T02:20:21.025Z,102661.00
2023-02-09T02:21:13.305Z,102661.50
2023-02-09T02:21:57.592Z,102656.56
2023-02-09T02:23:03.091Z,102645.44
2023-02-09T02:23:34.374Z,102664.25
2023-02-09T02:24:13.170Z,102659.91
2023-02-09T02:25:01.614Z,102667.91
2023-02-09T02:26:16.267Z,102659.91
2023-02-09T02:26:52.954Z,102657.97
2023-02-09T02:27:29.485Z,102651.63
2023-02-09T02:28:08.122Z,102639.88
2023-02-09T02:29:04.520Z,102655.59
2023-02-09T02:30:02.992Z,102648.19
2023-02-09T02:30:47.052Z,102647.34
2023-02-09T02:31:35.596Z,102641.97
2023-02-09T02:32:09.866Z,102636.78
2023-02-09T02:32:40.381Z,102642.88
2023-02-09T02:33:21.065Z,102646.47
2023-02-09T02:33:52.183Z,102646.34
2023-02-09T02:34:20.220Z,102636.78
2023-02-09T02:34:48.113Z,102647.47
2023-02-09T02:35:19.271Z,102643.81
2023-02-09T02:35:47.996Z,102644.47
2023-02-09T02:36:24.459Z,102638.38
2023-02-09T02:37:01.395Z,102642.47
2023-02-09T02:37:48.771Z,102641.63
2023-02-09T02:38:19.493Z,102647.94
2023-02-09T02:38:53.006Z,102615.97
2023-02-09T02:39:23.174Z,102641.84
2023-02-09T02:39:56.912Z,102642.91
2023-02-09T02:40:29.983Z,102640.22
2023-02-09T02:40:59.191Z,102645.88
2023-02-09T02:41:55.947Z,102649.50
2023-02-09T02:42:42.527Z,102646.28
2023-02-09T02:43:14.658Z,102641.25
2023-02-09T02:43:49.546Z,102649.59
2023-02-09T02:44:17.657Z,102647.88
2023-02-09T02:44:44.210Z,102643.75
2023-02-09T02:45:11.434Z,102648.44
2023-02-09T02:45:40.350Z,102643.41
2023-02-09T02:46:05.599Z,102640.00
2023-02-09T02:46:34.604Z,102626.47
2023-02-09T02:47:01.059Z,102642.63
2023-02-09T02:47:25.613Z,102643.47
2023-02-09T02:47:55.877Z,102639.09
2023-02-09T02:48:25.562Z,102642.31
2023-02-09T02:48:54.602Z,102646.56
2023-02-09T02:49:22.993Z,102637.94
2023-02-09T02:49:52.314Z,102637.88
2023-02-09T02:50:16.839Z,102643.94
2023-02-09T02:50:45.256Z,102645.25
2023-02-09T02:51:14.162Z,102639.25
2023-02-09T02:51:38.984Z,102639.38
2023-02-09T02:52:04.077Z,102630.50
2023-02-09T02:52:25.790Z,102640.44
2023-02-09T02:52:52.846Z,102640.56
2023-02-09T02:53:17.476Z,102646.78
2023-02-09T02:53:42.596Z,102629.91
2023-02-09T02:54:09.529Z,102646.81
2023-02-09T02:54:36.570Z,102644.22
2023-02-09T02:55:05.178Z,102650.44
2023-02-09T02:55:31.592Z,102650.72
2023-02-09T02:55:57.550Z,102650.75
2023-02-09T02:56:26.360Z,102646.56
2023-02-09T02:56:53.502Z,102648.47
2023-02-09T02:57:19.574Z,102654.75
2023-02-09T02:57:45.935Z,102644.06
2023-02-09T02:58:11.430Z,102645.97
2023-02-09T02:58:36.739Z,102631.72
2023-02-09T02:59:03.071Z,102657.59
2023-02-09T02:59:33.959Z,102654.19
2023-02-09T03:00:00.700Z,102642.66
2023-02-09T03:00:28.640Z,102649.78
2023-02-09T03:00:55.371Z,102651.56
2023-02-09T03:01:22.442Z,102653.31
2023-02-09T03:01:53.575Z,102633.91
2023-02-09T03:02:21.084Z,102634.03
2023-02-09T03:02:48.929Z,102636.72
2023-02-09T03:03:15.848Z,102651.97
2023-02-09T03:03:41.257Z,102656.41
2023-02-09T03:04:04.707Z,102653.75
2023-02-09T03:04:28.357Z,102655.59
2023-02-09T03:04:54.440Z,102650.22
2023-02-09T03:05:19.048Z,102645.06
2023-02-09T03:05:42.575Z,102648.56
2023-02-09T03:06:06.399Z,102646.66
2023-02-09T03:06:29.278Z,102650.22
2023-02-09T03:06:51.252Z,102654.19
2023-02-09T03:07:12.922Z,102646.25
2023-02-09T03:07:34.535Z,102649.78
2023-02-09T03:07:56.217Z,102650.56
2023-02-09T03:08:19.167Z,102647.78
2023-02-09T03:08:52.245Z,102638.91
2023-02-09T03:09:13.898Z,102643.25
2023-02-09T03:09:35.575Z,102639.72
2023-02-09T03:09:58.736Z,102627.22
2023-02-09T03:10:29.671Z,102636.50
2023-02-09T03:10:51.695Z,102646.31
2023-02-09T03:11:13.338Z,102645.44
2023-02-09T03:11:39.855Z,102650.81
2023-02-09T03:12:10.476Z,102643.91
2023-02-09T03:12:41.834Z,102653.56
2023-02-09T03:13:11.523Z,102644.78
2023-02-09T03:13:43.691Z,102654.53
2023-02-09T03:14:18.352Z,102646.72
2023-02-09T03:14:43.082Z,102649.28
2023-02-09T03:15:19.465Z,102644.97
2023-02-09T03:15:49.513Z,102651.19
2023-02-09T03:16:20.614Z,102626.53
2023-02-09T03:16:48.098Z,102649.53
2023-02-09T03:17:21.891Z,102654.78
2023-02-09T03:17:48.279Z,102647.03
2023-02-09T03:18:21.108Z,102648.03
2023-02-09T03:18:59.162Z,102651.53
2023-02-09T03:19:33.569Z,102648.19
2023-02-09T03:20:02.803Z,102650.81
2023-02-09T03:20:35.729Z,102652.72
2023-02-09T03:21:03.641Z,102635.00
2023-02-09T03:21:34.360Z,102647.59
2023-02-09T03:22:01.060Z,102646.75
2023-02-09T03:22:29.184Z,102636.25
2023-02-09T03:22:56.333Z,102645.09
2023-02-09T03:23:27.124Z,102649.50
2023-02-09T03:23:55.630Z,102642.53
2023-02-09T03:24:29.275Z,102643.41
2023-02-09T03:24:55.415Z,102638.09
2023-02-09T03:25:22.677Z,102641.56
2023-02-09T03:25:50.225Z,102645.22
2023-02-09T03:26:17.145Z,102642.53
2023-02-09T03:26:45.999Z,102630.16
2023-02-09T03:27:15.474Z,102642.47
2023-02-09T03:27:41.201Z,102650.28
2023-02-09T03:28:08.905Z,102640.56
2023-02-09T03:28:34.007Z,102613.84
2023-02-09T03:28:58.794Z,102627.75
2023-02-09T03:29:23.519Z,102639.34
2023-02-09T03:29:48.904Z,102639.41
2023-02-09T03:30:14.503Z,102644.53
2023-02-09T03:30:42.005Z,102644.53
2023-02-09T03:31:04.886Z,102642.63
2023-02-09T03:31:29.953Z,102648.56
2023-02-09T03:31:54.441Z,102638.00
2023-02-09T03:32:18.061Z,102645.94
2023-02-09T03:32:42.131Z,102635.50
2023-02-09T03:33:06.146Z,102637.25
2023-02-09T03:33:30.737Z,102633.59
2023-02-09T03:33:52.519Z,102640.78
2023-02-09T03:34:14.541Z,102638.16
2023-02-09T03:34:37.610Z,102601.53
2023-02-09T03:34:59.320Z,102649.47
2023-02-09T03:35:24.254Z,102628.00
2023-02-09T03:35:51.108Z,102645.88
2023-02-09T03:36:16.362Z,102643.25
2023-02-09T03:36:40.411Z,102652.97
2023-02-09T03:37:02.108Z,102647.69
2023-02-09T03:37:24.316Z,102647.69
2023-02-09T03:37:47.021Z,102645.88
2023-02-09T03:38:08.818Z,102645.94
2023-02-09T03:38:30.536Z,102652.03
2023-02-09T03:38:52.146Z,102636.84
2023-02-09T03:39:15.528Z,102660.72
2023-02-09T03:39:37.262Z,102659.06
2023-02-09T03:39:58.818Z,102654.78
2023-02-09T03:40:20.760Z,102658.38
2023-02-09T03:40:43.583Z,102658.44
2023-02-09T03:41:07.227Z,102655.81
2023-02-09T03:41:29.699Z,102657.34
2023-02-09T03:41:52.265Z,102653.94
2023-02-09T03:42:13.950Z,102654.03
2023-02-09T03:42:36.002Z,102655.88
2023-02-09T03:42:57.671Z,102655.03
2023-02-09T03:43:20.260Z,102658.56
2023-02-09T03:44:00.173Z,102662.09
2023-02-09T03:44:27.511Z,102655.03
2023-02-09T03:44:49.224Z,102657.66
2023-02-09T03:45:10.947Z,102657.69
2023-02-09T03:45:33.878Z,102654.25
2023-02-09T03:45:55.602Z,102591.06
2023-02-09T03:46:17.441Z,102632.06
2023-02-09T03:46:39.218Z,102654.22
2023-02-09T03:47:04.973Z,102652.53
2023-02-09T03:47:27.661Z,102645.53
2023-02-09T03:47:49.348Z,102631.72
2023-02-09T03:48:11.226Z,102645.41
2023-02-09T03:48:32.902Z,102651.59
2023-02-09T03:48:54.609Z,102639.34
2023-02-09T03:49:17.462Z,102649.72
2023-02-09T03:49:41.373Z,102656.78
2023-02-09T03:50:03.737Z,102652.41
2023-02-09T03:50:25.503Z,102647.88
2023-02-09T03:50:48.417Z,102646.91
2023-02-09T03:51:10.380Z,102653.88
2023-02-09T03:51:32.069Z,102651.13
2023-02-09T03:51:55.125Z,102644.16
2023-02-09T03:52:16.831Z,102651.91
2023-02-09T03:52:38.487Z,102643.19
2023-02-09T03:53:00.199Z,102645.69
2023-02-09T03:53:21.886Z,102643.19
2023-02-09T03:53:44.453Z,102641.47
2023-02-09T03:54:06.153Z,102642.38
2023-02-09T03:54:28.469Z,102645.88
2023-02-09T03:54:51.163Z,102640.63
2023-02-09T03:55:12.794Z,102652.03
2023-02-09T03:55:34.697Z,102636.34
2023-02-09T03:55:56.389Z,102644.22
2023-02-09T03:56:18.101Z,102649.19
2023-02-09T03:56:40.718Z,102643.94
2023-02-09T03:57:05.553Z,102635.88
2023-02-09T03:57:27.697Z,102638.72
2023-02-09T03:57:49.413Z,102642.38
2023-02-09T03:58:12.191Z,102640.63
2023-02-09T03:58:36.012Z,102628.06
2023-02-09T03:58:57.715Z,102637.88
2023-02-09T03:59:20.875Z,102638.69
2023-02-09T03:59:43.503Z,102639.63
2023-02-09T04:00:06.262Z,102631.59
2023-02-09T04:00:33.568Z,102639.72
2023-02-09T04:00:55.255Z,102634.50
2023-02-09T04:01:18.675Z,102613.09
2023-02-09T04:01:40.465Z,102638.97
2023-02-09T04:02:06.002Z,102629.34
2023-02-09T04:02:27.970Z,102632.00
2023-02-09T04:02:51.032Z,102633.75
2023-02-09T04:03:12.638Z,102625.84
2023-02-09T04:03:35.260Z,102631.84
2023-02-09T04:03:57.059Z,102626.53
2023-02-09T04:04:19.367Z,102597.09
2023-02-09T04:04:42.126Z,102633.72
2023-02-09T04:05:05.758Z,102638.84
2023-02-09T04:05:27.772Z,102629.31
2023-02-09T04:05:49.421Z,102635.50
2023-02-09T04:06:12.274Z,102631.03
2023-02-09T04:06:35.178Z,102628.28
2023-02-09T04:06:56.886Z,102627.63
2023-02-09T04:07:18.846Z,102626.66
2023-02-09T04:07:41.799Z,102624.94
2023-02-09T04:08:03.577Z,102624.88
2023-02-09T04:08:25.619Z,102624.88
2023-02-09T04:08:47.239Z,102620.59
2023-02-09T04:09:10.311Z,102628.50
2023-02-09T04:09:32.318Z,102631.13
2023-02-09T04:09:54.089Z,102627.63
2023-02-09T04:10:17.259Z,102619.81
2023-02-09T04:10:38.895Z,102620.59
2023-02-09T04:11:00.752Z,102624.25
2023-02-09T04:11:23.535Z,102628.72
2023-02-09T04:11:47.073Z,102631.34
2023-02-09T04:12:08.734Z,102626.03
2023-02-09T04:12:30.383Z,102624.31
2023-02-09T04:12:52.031Z,102625.19
2023-02-09T04:13:13.631Z,102629.56
2023-02-09T04:13:36.532Z,102622.63
2023-02-09T04:13:58.326Z,102612.72
2023-02-09T04:14:21.620Z,102625.19
2023-02-09T04:14:44.210Z,102597.66
2023-02-09T04:15:06.465Z,102614.50
2023-02-09T04:15:28.191Z,102620.00
2023-02-09T04:15:49.864Z,102617.06
2023-02-09T04:16:12.564Z,102629.50
2023-02-09T04:16:34.728Z,102623.47
2023-02-09T04:16:56.418Z,102624.41
2023-02-09T04:17:19.489Z,102616.53
2023-02-09T04:17:42.055Z,102624.41
2023-02-09T04:18:03.900Z,102609.06
2023-02-09T04:18:25.513Z,102626.72
2023-02-09T04:18:47.357Z,102627.63
2023-02-09T04:19:10.329Z,102619.75
2023-02-09T04:19:31.989Z,102625.66
2023-02-09T04:19:53.574Z,102620.47
2023-02-09T04:20:15.241Z,102624.03
2023-02-09T04:20:36.877Z,102619.75
2023-02-09T04:20:59.564Z,102622.38
2023-02-09T04:21:21.584Z,102596.59
2023-02-09T04:21:44.711Z,102628.63
2023-02-09T04:22:08.364Z,102627.03
2023-02-09T04:22:30.260Z,102626.16
2023-02-09T04:22:52.075Z,102619.16
2023-02-09T04:23:13.770Z,102627.06
2023-02-09T04:23:36.487Z,102633.25
2023-02-09T04:23:58.218Z,102624.94
2023-02-09T04:24:21.327Z,102622.25
2023-02-09T04:24:46.228Z,102623.06
2023-02-09T04:25:08.120Z,102619.63
2023-02-09T04:25:29.844Z,102625.72
2023-02-09T04:25:51.504Z,102620.63
2023-02-09T04:26:14.547Z,102617.84
2023-02-09T04:26:36.329Z,102622.94
2023-02-09T04:26:58.032Z,102611.44
2023-02-09T04:27:19.690Z,102622.81
2023-02-09T04:27:41.275Z,102619.03
2023-02-09T04:28:04.039Z,102627.75
2023-02-09T04:28:26.751Z,102619.88
2023-02-09T04:28:48.514Z,102622.53
2023-02-09T04:29:11.154Z,102620.78
2023-02-09T04:29:32.756Z,102621.75
2023-02-09T04:29:54.420Z,102622.53
2023-02-09T04:30:16.196Z,102619.88
2023-02-09T04:30:38.838Z,102623.81
2023-02-09T04:31:00.708Z,102615.06
2023-02-09T04:31:22.845Z,102617.84
2023-02-09T04:31:44.537Z,102623.16
2023-02-09T04:32:07.333Z,102614.44
2023-02-09T04:32:30.654Z,102612.59
2023-02-09T04:32:53.913Z,102593.81
2023-02-09T04:33:15.580Z,102610.72
2023-02-09T04:33:38.835Z,102612.50
2023-02-09T04:34:00.643Z,102611.75
2023-02-09T04:34:24.118Z,102604.59
2023-02-09T04:34:45.707Z,102611.50
2023-02-09T04:35:08.738Z,102617.72
2023-02-09T04:35:30.347Z,102605.41
2023-02-09T04:35:52.435Z,102609.69
2023-02-09T04:36:15.089Z,102601.94
2023-02-09T04:36:37.768Z,102608.09
2023-02-09T04:36:59.423Z,102585.94
2023-02-09T04:37:21.044Z,102605.06
2023-02-09T04:37:42.682Z,102603.41
2023-02-09T04:38:04.466Z,102612.31
2023-02-09T04:38:27.474Z,102601.88
2023-02-09T04:38:49.266Z,102605.47
2023-02-09T04:39:10.952Z,102602.91
2023-02-09T04:39:32.673Z,102603.00
2023-02-09T04:39:55.474Z,102599.44
2023-02-09T04:40:17.866Z,102595.88
2023-02-09T04:40:39.685Z,102608.34
2023-02-09T04:41:02.484Z,102599.63
2023-02-09T04:41:24.191Z,102605.81
2023-02-09T04:41:46.778Z,102597.09
2023-02-09T04:42:08.552Z,102597.09
2023-02-09T04:42:32.158Z,102599.78
2023-02-09T04:42:53.745Z,102607.66
2023-02-09T04:43:16.354Z,102596.06
2023-02-09T04:43:37.948Z,102606.63